createdAt,value
2023-05-17T00:03:34.734Z,8.05
2023-05-17T00:07:38.113Z,8.65
2023-05-17T00:11:41.559Z,6.57
2023-05-17T00:15:45.996Z,6.80
2023-05-17T00:19:49.215Z,7.70
2023-05-17T00:23:52.502Z,7.20
2023-05-17T00:27:56.107Z,6.68
2023-05-17T00:32:00.643Z,6.20
2023-05-17T00:36:04.156Z,5.30
2023-05-17T00:40:08.487Z,6.03
2023-05-17T00:44:11.896Z,6.07
2023-05-17T00:48:17.105Z,5.18
2023-05-17T00:52:20.723Z,6.75
2023-05-17T00:56:25.736Z,5.45
2023-05-17T01:00:29.467Z,6.75
2023-05-17T01:04:34.724Z,5.63
2023-05-17T01:08:38.346Z,4.82
2023-05-17T01:12:57.723Z,5.07
2023-05-17T01:17:04.350Z,5.18
2023-05-17T01:21:19.142Z,6.03
2023-05-17T01:25:40.971Z,5.05
2023-05-17T01:29:46.438Z,4.57
2023-05-17T01:33:49.628Z,5.03
2023-05-17T01:37:54.108Z,4.10
2023-05-17T01:42:05.077Z,3.97
2023-05-17T01:46:15.672Z,3.97
2023-05-17T01:50:23.337Z,4.22
2023-05-17T01:54:34.064Z,3.55
2023-05-17T01:58:46.698Z,3.25
2023-05-17T02:02:51.513Z,3.13
2023-05-17T02:06:54.526Z,4.55
2023-05-17T02:10:57.988Z,4.05
2023-05-17T02:15:01.045Z,3.10
2023-05-17T02:19:06.040Z,3.38
2023-05-17T02:23:09.207Z,2.85
2023-05-17T02:27:12.518Z,3.47
2023-05-17T02:31:15.795Z,2.63
2023-05-17T02:35:20.902Z,3.00
2023-05-17T02:39:24.424Z,2.15
2023-05-17T02:43:27.879Z,2.63
2023-05-17T02:47:31.107Z,2.25
2023-05-17T02:51:36.038Z,3.33
2023-05-17T02:55:39.276Z,2.38
2023-05-17T02:59:42.392Z,2.80
2023-05-17T03:03:45.564Z,2.63
2023-05-17T03:07:50.330Z,2.17
2023-05-17T03:11:53.443Z,2.83
2023-05-17T03:15:56.811Z,2.38
2023-05-17T03:19:59.807Z,2.70
2023-05-17T03:24:04.732Z,2.90
2023-05-17T03:28:07.958Z,3.20
2023-05-17T03:32:11.604Z,2.97
2023-05-17T03:36:14.972Z,2.50
2023-05-17T03:40:19.886Z,3.95
2023-05-17T03:44:22.805Z,3.17
2023-05-17T03:48:26.276Z,3.70
2023-05-17T03:52:29.458Z,2.80
2023-05-17T03:56:34.724Z,3.88
2023-05-17T04:00:38.080Z,4.60
2023-05-17T04:04:41.427Z,3.65
2023-05-17T04:08:44.614Z,3.95
2023-05-17T04:12:50.404Z,4.55
2023-05-17T04:16:53.467Z,2.67
2023-05-17T04:20:57.460Z,3.05
2023-05-17T04:25:00.482Z,4.80
2023-05-17T04:29:05.402Z,4.45
2023-05-17T04:33:10.500Z,4.57
2023-05-17T04:37:15.333Z,3.38
2023-05-17T04:41:18.491Z,4.72
2023-05-17T04:45:24.048Z,3.45
2023-05-17T04:49:27.124Z,3.65
2023-05-17T04:53:30.897Z,2.72
2023-05-17T04:57:34.091Z,3.17
2023-05-17T05:01:38.934Z,3.90
2023-05-17T05:05:41.882Z,3.65
2023-05-17T05:09:45.409Z,3.80
2023-05-17T05:13:48.343Z,3.55
2023-05-17T05:17:53.368Z,3.17
2023-05-17T05:21:56.558Z,3.35
2023-05-17T05:26:00.429Z,4.30
2023-05-17T05:30:04.323Z,4.60
2023-05-17T05:34:08.897Z,3.95
2023-05-17T05:38:11.989Z,3.80
2023-05-17T05:42:15.455Z,3.13
2023-05-17T05:46:18.707Z,3.17
2023-05-17T05:50:23.754Z,2.58
2023-05-17T05:54:27.217Z,2.15
2023-05-17T05:58:30.888Z,4.00
2023-05-17T06:02:35.310Z,3.20
2023-05-17T06:06:40.136Z,2.90
2023-05-17T06:10:43.577Z,2.70
2023-05-17T06:14:46.847Z,2.80
2023-05-17T06:18:51.623Z,2.25
2023-05-17T06:22:56.638Z,2.25
2023-05-17T06:27:00.561Z,2.70
2023-05-17T06:31:07.112Z,2.22
2023-05-17T06:35:11.955Z,2.67
2023-05-17T06:39:16.765Z,2.20
2023-05-17T06:43:20.058Z,3.10
2023-05-17T06:47:25.044Z,2.03
2023-05-17T06:51:30.397Z,1.75
2023-05-17T06:55:35.295Z,1.75
2023-05-17T06:59:38.962Z,1.83
2023-05-17T07:03:42.578Z,3.10
2023-05-17T07:07:46.029Z,2.70
2023-05-17T07:11:50.769Z,1.67
2023-05-17T07:15:54.937Z,1.60
2023-05-17T07:19:58.480Z,1.88
2023-05-17T07:24:01.719Z,1.70
2023-05-17T07:28:06.878Z,1.50
2023-05-17T07:32:10.592Z,1.02
2023-05-17T07:36:14.419Z,1.27
2023-05-17T07:40:18.289Z,1.65
2023-05-17T07:44:23.071Z,1.08
2023-05-17T07:48:27.133Z,1.70
2023-05-17T07:52:30.661Z,1.73
2023-05-17T07:56:34.104Z,1.33
2023-05-17T08:00:38.557Z,1.00
2023-05-17T08:04:42.295Z,1.15
2023-05-17T08:08:46.137Z,0.90
2023-05-17T08:12:49.434Z,1.65
2023-05-17T08:16:54.275Z,1.02
2023-05-17T08:20:57.784Z,1.30
2023-05-17T08:25:01.175Z,1.33
2023-05-17T08:29:04.892Z,1.33
2023-05-17T08:33:11.999Z,0.80
2023-05-17T08:37:15.255Z,1.98
2023-05-17T08:41:18.598Z,0.90
2023-05-17T08:45:22.755Z,1.00
2023-05-17T08:49:33.534Z,1.00
2023-05-17T08:53:37.159Z,1.35
2023-05-17T08:57:40.948Z,0.80
2023-05-17T09:01:46.505Z,1.13
2023-05-17T09:05:53.097Z,2.28
2023-05-17T09:09:56.787Z,1.10
2023-05-17T09:14:01.871Z,1.63
2023-05-17T09:18:05.338Z,1.80
2023-05-17T09:22:10.387Z,1.40
2023-05-17T09:26:16.352Z,1.05
2023-05-17T09:30:19.585Z,1.45
2023-05-17T09:34:24.087Z,1.55
2023-05-17T09:38:28.936Z,1.90
2023-05-17T09:42:34.722Z,1.60
2023-05-17T09:46:39.916Z,1.42
2023-05-17T09:50:47.825Z,1.65
2023-05-17T09:55:07.459Z,1.30
2023-05-17T09:59:14.006Z,1.73
2023-05-17T10:03:18.826Z,1.30
2023-05-17T10:07:22.652Z,1.35
2023-05-17T10:11:34.714Z,1.25
2023-05-17T10:15:39.256Z,1.40
2023-05-17T10:19:43.059Z,1.25
2023-05-17T10:23:48.035Z,0.88
2023-05-17T10:27:53.491Z,0.80
2023-05-17T10:31:58.337Z,1.10
2023-05-17T10:36:03.703Z,1.60
2023-05-17T10:40:13.687Z,1.45
2023-05-17T10:44:19.242Z,1.15
2023-05-17T10:48:24.107Z,1.20
2023-05-17T10:52:27.666Z,0.85
2023-05-17T10:56:31.997Z,1.50
2023-05-17T11:00:41.205Z,1.02
2023-05-17T11:04:46.380Z,1.70
2023-05-17T11:09:15.506Z,1.10
2023-05-17T11:13:28.251Z,1.00
2023-05-17T11:17:50.027Z,1.20
2023-05-17T11:21:53.643Z,0.90
2023-05-17T11:26:02.908Z,0.93
2023-05-17T11:30:11.514Z,1.02
2023-05-17T11:34:19.533Z,1.63
2023-05-17T11:38:26.369Z,1.40
2023-05-17T11:42:29.652Z,1.20
2023-05-17T11:46:36.099Z,1.13
2023-05-17T11:50:41.299Z,1.00
2023-05-17T11:54:45.202Z,1.05
2023-05-17T11:58:53.048Z,1.13
2023-05-17T12:02:58.168Z,1.67
2023-05-17T12:07:03.135Z,0.85
2023-05-17T12:11:07.668Z,1.20
2023-05-17T12:15:14.660Z,1.35
2023-05-17T12:19:22.726Z,1.27
2023-05-17T12:23:33.824Z,1.23
2023-05-17T12:27:37.733Z,1.00
2023-05-17T12:31:43.382Z,1.20
2023-05-17T12:35:48.730Z,0.65
2023-05-17T12:39:53.277Z,1.02
2023-05-17T12:44:13.646Z,1.20
2023-05-17T12:48:19.509Z,0.90
2023-05-17T12:52:24.355Z,1.40
2023-05-17T12:56:30.981Z,0.75
2023-05-17T13:00:34.735Z,1.27
2023-05-17T13:04:38.924Z,1.40
2023-05-17T13:08:44.149Z,0.80
2023-05-17T13:12:57.895Z,1.27
2023-05-17T13:17:01.669Z,1.67
2023-05-17T13:21:04.725Z,1.10
2023-05-17T13:25:08.238Z,1.00
2023-05-17T13:29:15.452Z,1.00
2023-05-17T13:33:19.072Z,1.27
2023-05-17T13:37:22.452Z,1.00
2023-05-17T13:41:25.540Z,1.40
2023-05-17T13:45:30.192Z,1.17
2023-05-17T13:49:33.526Z,1.15
2023-05-17T13:53:39.137Z,1.42
2023-05-17T13:57:42.946Z,1.38
2023-05-17T14:01:47.884Z,1.48
2023-05-17T14:05:53.344Z,1.20
2023-05-17T14:09:56.951Z,1.95
2023-05-17T14:14:01.721Z,1.27
2023-05-17T14:18:07.930Z,1.10
2023-05-17T14:22:11.858Z,1.20
2023-05-17T14:26:14.805Z,1.27
2023-05-17T14:30:18.219Z,1.23
2023-05-17T14:34:22.869Z,0.90
2023-05-17T14:38:35.936Z,1.00
2023-05-17T14:42:41.901Z,0.80
2023-05-17T14:46:45.362Z,0.85
2023-05-17T14:50:49.664Z,0.80
2023-05-17T14:54:53.668Z,0.88
2023-05-17T14:58:57.905Z,0.90
2023-05-17T15:03:01.827Z,1.30
2023-05-17T15:07:07.697Z,1.27
2023-05-17T15:11:11.362Z,0.70
2023-05-17T15:15:14.927Z,0.85
2023-05-17T15:19:18.822Z,1.13
2023-05-17T15:23:23.460Z,1.00
2023-05-17T15:27:35.880Z,1.65
2023-05-17T15:31:39.397Z,0.75
2023-05-17T15:35:44.430Z,0.93
2023-05-17T15:39:49.298Z,1.23
2023-05-17T15:43:54.030Z,0.75
2023-05-17T15:47:57.573Z,0.85
2023-05-17T15:52:00.999Z,0.70
2023-05-17T15:56:06.664Z,0.70
2023-05-17T16:00:11.528Z,1.27
2023-05-17T16:04:15.077Z,0.77
2023-05-17T16:08:20.730Z,1.17
2023-05-17T16:12:28.706Z,0.70
2023-05-17T16:16:32.674Z,1.17
2023-05-17T16:20:35.792Z,0.88
2023-05-17T16:24:39.254Z,1.10
2023-05-17T16:28:44.293Z,1.15
2023-05-17T16:32:48.468Z,0.73
2023-05-17T16:36:51.671Z,0.93
2023-05-17T16:40:55.282Z,1.17
2023-05-17T16:45:00.373Z,1.33
2023-05-17T16:49:07.596Z,1.30
2023-05-17T16:53:10.909Z,1.08
2023-05-17T16:57:15.025Z,0.90
2023-05-17T17:01:21.544Z,1.20
2023-05-17T17:05:24.978Z,1.08
2023-05-17T17:09:30.137Z,0.90
2023-05-17T17:13:33.572Z,1.35
2023-05-17T17:17:39.461Z,1.23
2023-05-17T17:21:44.057Z,1.13
2023-05-17T17:25:48.622Z,1.42
2023-05-17T17:29:52.413Z,1.05
2023-05-17T17:33:58.400Z,1.25
2023-05-17T17:38:03.481Z,2.63
2023-05-17T17:42:07.388Z,1.48
2023-05-17T17:46:11.035Z,1.40
2023-05-17T17:50:16.676Z,1.33
2023-05-17T17:54:20.272Z,1.35
2023-05-17T17:58:29.116Z,1.75
2023-05-17T18:02:32.555Z,1.30
2023-05-17T18:06:37.744Z,1.80
2023-05-17T18:10:42.436Z,1.52
2023-05-17T18:14:46.744Z,1.88
2023-05-17T18:18:50.228Z,1.77
2023-05-17T18:22:55.111Z,1.30
2023-05-17T18:26:58.637Z,2.20
2023-05-17T18:31:01.657Z,2.05
2023-05-17T18:35:05.437Z,2.30
2023-05-17T18:39:12.422Z,1.75
2023-05-17T18:43:16.250Z,2.10
2023-05-17T18:47:20.168Z,1.48
2023-05-17T18:51:23.520Z,2.22
2023-05-17T18:55:28.651Z,1.98
2023-05-17T18:59:32.030Z,2.63
2023-05-17T19:03:35.879Z,2.85
2023-05-17T19:07:44.647Z,2.80
2023-05-17T19:11:50.030Z,2.40
2023-05-17T19:15:55.113Z,3.22
2023-05-17T19:19:58.071Z,2.67
2023-05-17T19:24:02.453Z,2.95
2023-05-17T19:28:07.410Z,2.78
2023-05-17T19:32:10.803Z,3.05
2023-05-17T19:36:15.953Z,3.83
2023-05-17T19:40:24.060Z,3.45
2023-05-17T19:44:28.602Z,3.55
2023-05-17T19:48:32.144Z,2.65
2023-05-17T19:52:37.517Z,3.72
2023-05-17T19:56:42.089Z,2.55
2023-05-17T20:00:46.633Z,2.85
2023-05-17T20:04:49.805Z,2.45
2023-05-17T20:08:53.074Z,2.97
2023-05-17T20:12:56.548Z,2.15
2023-05-17T20:17:01.825Z,2.85
2023-05-17T20:21:05.323Z,3.13
2023-05-17T20:25:10.299Z,2.03
2023-05-17T20:29:13.953Z,2.25
2023-05-17T20:33:22.631Z,2.38
2023-05-17T20:37:26.529Z,1.95
2023-05-17T20:41:29.909Z,2.53
2023-05-17T20:45:34.433Z,1.75
2023-05-17T20:49:39.258Z,2.13
2023-05-17T20:53:43.042Z,2.65
2023-05-17T20:57:47.118Z,2.17
2023-05-17T21:01:52.843Z,2.22
2023-05-17T21:05:58.150Z,2.08
2023-05-17T21:10:01.369Z,3.10
2023-05-17T21:14:04.473Z,2.20
2023-05-17T21:18:08.569Z,1.92
2023-05-17T21:22:13.297Z,2.40
2023-05-17T21:26:17.062Z,1.95
2023-05-17T21:30:20.871Z,3.40
2023-05-17T21:34:25.648Z,2.38
2023-05-17T21:38:31.573Z,1.90
2023-05-17T21:42:35.344Z,2.78
2023-05-17T21:46:38.549Z,1.98
2023-05-17T21:50:41.719Z,1.98
2023-05-17T21:54:46.743Z,2.55
2023-05-17T21:58:50.156Z,1.75
2023-05-17T22:02:53.576Z,2.28
2023-05-17T22:06:57.735Z,2.10
2023-05-17T22:11:02.513Z,3.03
2023-05-17T22:15:07.700Z,2.22
2023-05-17T22:19:11.300Z,2.28
2023-05-17T22:23:15.984Z,2.70
2023-05-17T22:27:21.111Z,2.25
2023-05-17T22:31:25.303Z,2.08
2023-05-17T22:35:28.566Z,3.25
2023-05-17T22:39:33.303Z,2.50
2023-05-17T22:43:38.266Z,1.95
2023-05-17T22:47:42.898Z,2.63
2023-05-17T22:51:47.088Z,2.28
2023-05-17T22:55:50.796Z,2.38
2023-05-17T22:59:55.868Z,2.53
2023-05-17T23:03:59.096Z,2.30
2023-05-17T23:08:02.500Z,2.97
2023-05-17T23:12:07.175Z,2.30
2023-05-17T23:16:14.190Z,2.92
2023-05-17T23:20:18.229Z,2.78
2023-05-17T23:24:23.532Z,3.55
2023-05-17T23:28:27.106Z,4.10
2023-05-17T23:32:34.417Z,3.03
2023-05-17T23:36:37.922Z,2.97
2023-05-17T23:44:57.566Z,2.10
2023-05-17T23:49:04.599Z,2.30
2023-05-17T23:53:09.937Z,1.83
2023-05-17T23:57:13.632Z,2.92
